< Cyclone 199712 1997 Season Cyclone 199714 >
Cyclone 199713 (RHONDA)
General InformationTrack Information on Google MapsDetailed Wind InformationList of All Images || ResourceGoogle EarthGE AnimationAtom FeedGeoJSON
Detalied Best Track (Time Zone = UTC)
Year Month Day Hour Lat. Long. Pressure (hPa) Wind (kt) Class Image Chart
1997 5 10 01 -10.9 84.5 1000 27 2 Image --
1997 5 10 13 -10.9 87.0 998 29 2 Image --
1997 5 11 01 -11.4 90.1 995 35 3 Image --
1997 5 11 10 -11.8 91.0 990 41 3 Image --
1997 5 11 16 -11.9 91.3 990 41 3 Image --
1997 5 11 22 -12.1 91.5 985 47 3 Image --
1997 5 12 04 -12.1 91.7 985 47 3 Image --
1997 5 12 07 -12.2 91.8 980 54 4 Image --
1997 5 12 10 -12.3 92.0 980 54 4 Image --
1997 5 12 16 -12.4 92.3 975 60 4 Image --
1997 5 12 22 -12.7 92.8 975 60 4 Image --
1997 5 13 04 -13.1 93.1 970 66 5 Image --
1997 5 13 07 -13.3 93.3 965 70 5 Image --
1997 5 13 10 -13.5 93.8 960 76 5 Image --
1997 5 13 16 -14.2 94.9 955 80 5 Image --
1997 5 13 22 -15.0 95.9 950 84 5 Image --
1997 5 14 01 -15.4 96.3 945 89 5 Image --
1997 5 14 04 -15.8 96.8 935 97 5 Image --
1997 5 14 07 -16.3 97.4 940 93 5 Image --
1997 5 14 10 -16.9 98.0 945 89 5 Image --
1997 5 14 16 -17.7 99.2 950 84 5 Image --
1997 5 14 22 -18.6 100.6 955 80 5 Image --
1997 5 15 01 -19.0 101.2 965 70 5 Image --
1997 5 15 04 -19.6 101.9 970 66 5 Image --
1997 5 15 10 -20.7 103.4 975 60 4 Image --
1997 5 15 16 -21.9 104.9 980 54 4 Image --
1997 5 15 22 -23.0 106.8 985 47 3 Image --
1997 5 16 01 -23.5 107.6 990 41 3 Image --
1997 5 16 04 -24.0 108.3 995 35 3 Image --
1997 5 16 07 -24.5 109.0 998 29 2 Image --
1997 5 16 10 -24.6 109.3 1000 27 2 Image --
1997 5 16 13 -24.7 109.6 1000 27 2 Image --
1997 5 16 16 -24.7 109.8 1000 27 2 Image --
1997 5 16 19 -24.7 110.1 1000 27 2 Image --
1997 5 16 22 -25.0 110.5 1000 27 2 Image --
1997 5 17 01 -25.5 110.8 1000 27 2 Image --
1997 5 17 04 -25.9 111.3 1000 27 2 Image --
1997 5 17 10 -27.2 112.2 1005 19 2 Image --
< Cyclone 199712 1997 Season Cyclone 199714 >

Help